createdAt,value
2023-02-04T00:05:28.901Z,6.20
2023-02-04T00:08:30.798Z,8.23
2023-02-04T00:11:32.773Z,8.32
2023-02-04T00:14:34.656Z,10.20
2023-02-04T00:17:36.618Z,6.95
2023-02-04T00:20:38.473Z,7.50
2023-02-04T00:23:40.811Z,8.10
2023-02-04T00:26:42.727Z,8.07
2023-02-04T00:29:44.754Z,7.28
2023-02-04T00:32:47.819Z,7.53
2023-02-04T00:35:49.756Z,8.75
2023-02-04T00:38:51.658Z,8.23
2023-02-04T00:41:53.646Z,9.77
2023-02-04T00:44:56.158Z,11.05
2023-02-04T00:51:00.596Z,9.13
2023-02-04T00:54:02.495Z,9.32
2023-02-04T00:57:04.411Z,8.65
2023-02-04T01:00:06.918Z,10.32
2023-02-04T01:03:09.023Z,9.02
2023-02-04T01:06:11.779Z,8.68
2023-02-04T01:09:13.765Z,8.38
2023-02-04T01:12:15.800Z,7.38
2023-02-04T01:15:18.012Z,6.97
2023-02-04T01:18:19.945Z,7.25
2023-02-04T01:21:23.471Z,7.20
2023-02-04T01:24:26.093Z,8.05
2023-02-04T01:27:46.779Z,8.77
2023-02-04T01:30:48.921Z,6.95
2023-02-04T01:33:50.972Z,7.28
2023-02-04T01:36:55.323Z,8.85
2023-02-04T01:39:57.225Z,8.07
2023-02-04T01:42:59.449Z,8.07
2023-02-04T01:46:01.636Z,11.48
2023-02-04T01:49:05.735Z,9.02
2023-02-04T01:52:09.849Z,11.18
2023-02-04T01:55:18.248Z,11.77
2023-02-04T01:58:20.567Z,10.88
2023-02-04T02:01:46.991Z,11.55
2023-02-04T02:04:48.926Z,11.07
2023-02-04T02:07:53.695Z,13.40
2023-02-04T02:10:55.616Z,12.80
2023-02-04T02:13:57.605Z,10.70
2023-02-04T02:16:59.643Z,10.95
2023-02-04T02:20:02.014Z,10.60
2023-02-04T02:23:16.818Z,9.88
2023-02-04T02:29:22.931Z,11.02
2023-02-04T02:32:24.857Z,10.57
2023-02-04T02:35:28.357Z,10.20
2023-02-04T02:38:31.888Z,10.45
2023-02-04T02:41:36.581Z,8.88
2023-02-04T02:44:38.510Z,10.52
2023-02-04T02:47:40.441Z,11.35
2023-02-04T02:50:43.162Z,8.05
2023-02-04T02:53:47.834Z,6.25
2023-02-04T02:56:50.592Z,6.10
2023-02-04T02:59:53.047Z,7.28
2023-02-04T03:03:00.104Z,9.02
2023-02-04T03:06:12.919Z,6.65
2023-02-04T03:09:15.054Z,7.28
2023-02-04T03:12:17.093Z,9.77
2023-02-04T03:15:19.084Z,6.40
2023-02-04T03:18:22.371Z,7.80
2023-02-04T03:21:24.366Z,6.93
2023-02-04T03:24:26.391Z,6.13
2023-02-04T03:27:29.183Z,5.65
2023-02-04T03:30:32.042Z,7.55
2023-02-04T03:33:34.186Z,9.35
2023-02-04T03:36:36.129Z,8.70
2023-02-04T03:39:38.259Z,9.65
2023-02-04T03:42:40.551Z,10.15
2023-02-04T03:45:45.519Z,7.28
2023-02-04T03:48:48.006Z,6.72
2023-02-04T03:51:50.631Z,8.10
2023-02-04T03:57:54.978Z,11.52
2023-02-04T04:00:57.196Z,8.73
2023-02-04T04:03:59.274Z,8.68
2023-02-04T04:07:01.262Z,11.30
2023-02-04T04:10:03.916Z,9.63
2023-02-04T04:13:06.018Z,5.10
2023-02-04T04:16:08.472Z,10.20
2023-02-04T04:19:10.515Z,8.52
2023-02-04T04:22:12.623Z,11.02
2023-02-04T04:25:14.725Z,11.02
2023-02-04T04:28:17.185Z,7.70
2023-02-04T04:31:20.131Z,7.90
2023-02-04T04:34:24.062Z,9.57
2023-02-04T04:37:26.160Z,6.20
2023-02-04T04:40:28.152Z,9.82
2023-02-04T04:43:30.194Z,6.82
2023-02-04T04:46:32.242Z,7.00
2023-02-04T04:49:34.308Z,6.07
2023-02-04T04:52:36.433Z,9.25
2023-02-04T04:55:39.325Z,7.60
2023-02-04T05:01:43.579Z,6.82
2023-02-04T05:04:45.757Z,9.18
2023-02-04T05:07:47.964Z,6.43
2023-02-04T05:10:50.206Z,7.15
2023-02-04T05:13:52.526Z,6.78
2023-02-04T05:16:54.820Z,7.28
2023-02-04T05:20:00.633Z,8.45
2023-02-04T05:23:05.411Z,7.80
2023-02-04T05:26:07.930Z,7.45
2023-02-04T05:29:10.820Z,7.25
2023-02-04T05:32:13.188Z,6.72
2023-02-04T05:35:16.184Z,5.82
2023-02-04T05:38:18.329Z,10.40
2023-02-04T05:41:20.474Z,7.40
2023-02-04T05:44:22.722Z,7.30
2023-02-04T05:47:24.954Z,6.63
2023-02-04T05:50:27.172Z,6.05
2023-02-04T05:53:43.466Z,7.55
2023-02-04T05:56:47.159Z,7.05
2023-02-04T05:59:49.325Z,6.97
2023-02-04T06:02:51.497Z,8.88
2023-02-04T06:05:53.798Z,6.95
2023-02-04T06:08:55.903Z,6.85
2023-02-04T06:11:58.094Z,6.28
2023-02-04T06:15:02.843Z,7.68
2023-02-04T06:18:04.909Z,7.63
2023-02-04T06:21:06.991Z,7.00
2023-02-04T06:24:09.117Z,5.28
2023-02-04T06:27:11.309Z,6.53
2023-02-04T06:30:14.369Z,8.80
2023-02-04T06:33:16.396Z,7.32
2023-02-04T06:36:18.403Z,4.63
2023-02-04T06:39:20.458Z,6.43
2023-02-04T06:42:22.471Z,6.70
2023-02-04T06:45:24.504Z,6.35
2023-02-04T06:48:26.523Z,7.85
2023-02-04T06:51:28.552Z,9.07
2023-02-04T06:54:30.572Z,10.27
2023-02-04T06:57:32.646Z,8.98
2023-02-04T07:00:35.055Z,6.95
2023-02-04T07:03:38.040Z,6.57
2023-02-04T07:06:40.381Z,8.50
2023-02-04T07:09:42.387Z,6.50
2023-02-04T07:12:44.479Z,5.53
2023-02-04T07:15:46.562Z,7.60
2023-02-04T07:18:48.754Z,7.25
2023-02-04T07:21:50.816Z,10.95
2023-02-04T07:24:53.236Z,6.90
2023-02-04T07:27:55.389Z,7.25
2023-02-04T07:30:58.069Z,6.40
2023-02-04T07:34:00.180Z,6.05
2023-02-04T07:37:02.332Z,8.40
2023-02-04T07:40:05.198Z,9.63
2023-02-04T07:46:10.467Z,8.27
2023-02-04T07:49:12.614Z,7.32
2023-02-04T07:52:14.661Z,7.25
2023-02-04T07:55:16.852Z,6.25
2023-02-04T07:58:18.940Z,7.70
2023-02-04T08:01:20.966Z,12.75
2023-02-04T08:04:25.704Z,8.35
2023-02-04T08:07:27.780Z,5.80
2023-02-04T08:10:30.113Z,8.52
2023-02-04T08:13:32.565Z,7.10
2023-02-04T08:16:34.760Z,8.70
2023-02-04T08:19:36.792Z,12.93
2023-02-04T08:22:38.936Z,10.73
2023-02-04T08:25:41.116Z,8.88
2023-02-04T08:28:43.240Z,5.45
2023-02-04T08:31:45.325Z,8.43
2023-02-04T08:34:47.417Z,10.07
2023-02-04T08:37:49.456Z,7.63
2023-02-04T08:40:51.464Z,9.18
2023-02-04T08:43:53.480Z,6.28
2023-02-04T08:46:55.822Z,6.70
2023-02-04T08:49:58.041Z,5.88
2023-02-04T08:53:00.072Z,10.10
2023-02-04T08:56:02.125Z,6.65
2023-02-04T08:59:04.360Z,8.52
2023-02-04T09:02:07.225Z,5.80
2023-02-04T09:05:09.251Z,7.28
2023-02-04T09:08:11.352Z,6.22
2023-02-04T09:11:13.407Z,6.63
2023-02-04T09:14:15.709Z,6.82
2023-02-04T09:17:17.884Z,9.55
2023-02-04T09:20:20.355Z,10.05
2023-02-04T09:23:22.482Z,6.70
2023-02-04T09:26:24.613Z,9.90
2023-02-04T09:29:26.919Z,7.85
2023-02-04T09:32:40.100Z,9.45
2023-02-04T09:35:42.140Z,8.23
2023-02-04T09:38:44.089Z,7.47
2023-02-04T09:41:46.082Z,9.38
2023-02-04T09:44:47.984Z,8.65
2023-02-04T09:47:51.519Z,10.93
2023-02-04T09:51:05.370Z,9.25
2023-02-04T09:54:15.951Z,10.55
2023-02-04T09:57:19.843Z,7.78
2023-02-04T10:00:25.321Z,10.60
2023-02-04T10:03:30.142Z,8.93
2023-02-04T10:06:32.329Z,8.93
2023-02-04T10:09:34.310Z,10.40
2023-02-04T10:12:36.233Z,11.80
2023-02-04T10:15:38.675Z,8.95
2023-02-04T10:18:41.184Z,14.73
2023-02-04T10:21:45.098Z,12.85
2023-02-04T10:24:47.246Z,18.98
2023-02-04T10:27:57.836Z,16.95
2023-02-04T10:31:00.209Z,14.50
2023-02-04T10:34:14.193Z,10.93
2023-02-04T10:37:21.838Z,14.60
2023-02-04T10:40:27.974Z,13.20
2023-02-04T10:43:30.106Z,9.57
2023-02-04T10:46:32.517Z,14.77
2023-02-04T10:49:34.444Z,12.30
2023-02-04T10:52:41.980Z,11.43
2023-02-04T10:55:45.662Z,14.60
2023-02-04T10:58:48.227Z,18.08
2023-02-04T11:04:52.553Z,16.10
2023-02-04T11:07:54.434Z,9.07
2023-02-04T11:10:59.780Z,16.35
2023-02-04T11:14:02.871Z,13.68
2023-02-04T11:17:04.915Z,15.73
2023-02-04T11:20:17.862Z,12.38
2023-02-04T11:23:25.884Z,13.50
2023-02-04T11:26:42.476Z,12.02
2023-02-04T11:29:44.432Z,14.40
2023-02-04T11:33:00.780Z,12.65
2023-02-04T11:36:08.049Z,11.15
2023-02-04T11:39:17.125Z,13.90
2023-02-04T11:42:41.557Z,10.60
2023-02-04T11:45:43.870Z,11.18
2023-02-04T11:48:45.977Z,7.45
2023-02-04T12:03:45.915Z,13.05
2023-02-04T12:06:58.581Z,7.60
2023-02-04T12:10:15.484Z,9.95
2023-02-04T12:13:22.813Z,10.13
2023-02-04T12:16:25.530Z,9.70
2023-02-04T12:19:28.080Z,9.88
2023-02-04T12:22:30.072Z,9.85
2023-02-04T12:25:32.641Z,10.27
2023-02-04T12:28:34.956Z,13.13
2023-02-04T12:31:37.027Z,11.02
2023-02-04T12:34:39.005Z,13.77
2023-02-04T12:37:41.011Z,11.82
2023-02-04T12:40:42.932Z,10.27
2023-02-04T12:43:44.784Z,16.52
2023-02-04T12:46:47.271Z,7.68
2023-02-04T12:52:55.772Z,11.70
2023-02-04T12:55:57.888Z,9.15
2023-02-04T12:58:59.818Z,9.68
2023-02-04T13:02:01.774Z,7.90
2023-02-04T13:05:03.747Z,11.07
2023-02-04T13:08:05.732Z,9.13
2023-02-04T13:11:07.724Z,9.63
2023-02-04T13:14:09.595Z,7.10
2023-02-04T13:17:11.863Z,9.88
2023-02-04T13:20:13.831Z,12.13
2023-02-04T13:23:15.757Z,10.85
2023-02-04T13:26:17.636Z,10.73
2023-02-04T13:29:19.759Z,13.00
2023-02-04T13:32:21.727Z,9.57
2023-02-04T13:35:23.683Z,9.27
2023-02-04T13:38:25.536Z,14.95
2023-02-04T13:41:28.358Z,8.70
2023-02-04T13:44:30.239Z,9.35
2023-02-04T13:47:32.118Z,9.25
2023-02-04T13:50:34.310Z,13.32
2023-02-04T13:53:36.433Z,10.43
2023-02-04T13:56:40.581Z,16.55
2023-02-04T13:59:42.484Z,13.07
2023-02-04T14:02:44.470Z,11.00
2023-02-04T14:05:46.454Z,10.70
2023-02-04T14:08:48.803Z,7.38
2023-02-04T14:11:50.685Z,7.30
2023-02-04T14:14:52.695Z,7.85
2023-02-04T14:17:54.591Z,10.05
2023-02-04T14:20:56.469Z,11.73
2023-02-04T14:23:58.488Z,12.25
2023-02-04T14:27:00.405Z,10.25
2023-02-04T14:30:02.387Z,12.73
2023-02-04T14:33:04.573Z,6.05
2023-02-04T14:36:06.790Z,6.88
2023-02-04T14:39:09.085Z,8.00
2023-02-04T14:42:11.132Z,8.82
2023-02-04T14:45:14.544Z,10.80
2023-02-04T14:48:16.494Z,10.07
2023-02-04T14:51:18.912Z,9.85
2023-02-04T14:54:20.892Z,11.20
2023-02-04T14:57:22.979Z,9.43
2023-02-04T15:00:25.051Z,11.10
2023-02-04T15:03:26.975Z,10.65
2023-02-04T15:06:28.871Z,10.88
2023-02-04T15:09:30.788Z,10.38
2023-02-04T15:12:32.649Z,12.15
2023-02-04T15:15:34.724Z,9.13
2023-02-04T15:18:36.620Z,10.35
2023-02-04T15:21:38.568Z,12.48
2023-02-04T15:24:40.535Z,10.63
2023-02-04T15:27:42.564Z,10.65
2023-02-04T15:30:44.605Z,10.85
2023-02-04T15:33:46.522Z,9.68
2023-02-04T15:36:50.953Z,10.07
2023-02-04T15:39:53.261Z,11.00
2023-02-04T15:42:55.488Z,10.40
2023-02-04T15:45:57.654Z,7.28
2023-02-04T15:48:59.753Z,10.00
2023-02-04T15:52:02.086Z,12.85
2023-02-04T15:55:04.385Z,8.15
2023-02-04T15:58:06.440Z,11.80
2023-02-04T16:01:08.485Z,11.07
2023-02-04T16:04:12.217Z,11.27
2023-02-04T16:07:14.316Z,9.23
2023-02-04T16:10:18.456Z,12.85
2023-02-04T16:13:21.465Z,7.22
2023-02-04T16:16:23.611Z,9.07
2023-02-04T16:19:25.685Z,10.02
2023-02-04T16:22:27.826Z,8.85
2023-02-04T16:25:30.560Z,9.88
2023-02-04T16:28:33.783Z,5.93
2023-02-04T16:31:35.830Z,8.50
2023-02-04T16:34:37.781Z,8.73
2023-02-04T16:37:40.201Z,8.15
2023-02-04T16:40:42.273Z,9.15
2023-02-04T16:43:44.407Z,9.73
2023-02-04T16:46:46.604Z,12.20
2023-02-04T16:49:48.864Z,7.75
2023-02-04T16:52:53.657Z,10.30
2023-02-04T16:55:55.729Z,8.75
2023-02-04T16:58:57.798Z,12.40
2023-02-04T17:02:00.006Z,10.80
2023-02-04T17:05:02.672Z,23.67
2023-02-04T17:08:05.888Z,24.30
2023-02-04T17:11:08.030Z,20.75
2023-02-04T17:14:11.983Z,24.25
2023-02-04T17:17:14.106Z,25.80
2023-02-04T17:20:16.369Z,44.63
2023-02-04T17:23:18.384Z,23.50
2023-02-04T17:26:20.535Z,20.08
2023-02-04T17:29:22.696Z,29.20
2023-02-04T17:32:24.920Z,12.05
2023-02-04T17:35:27.282Z,8.65
2023-02-04T17:38:30.283Z,12.25
2023-02-04T17:41:33.345Z,22.52
2023-02-04T17:44:35.368Z,15.30
2023-02-04T17:47:38.941Z,15.65
2023-02-04T17:50:41.892Z,8.70
2023-02-04T17:53:44.105Z,15.98
2023-02-04T17:56:46.134Z,15.60
2023-02-04T17:59:51.668Z,19.13
2023-02-04T18:02:54.299Z,14.55
2023-02-04T18:05:57.165Z,16.40
2023-02-04T18:08:59.379Z,20.42
2023-02-04T18:12:02.642Z,27.67
2023-02-04T18:15:26.413Z,17.50
2023-02-04T18:18:41.177Z,13.50
2023-02-04T18:21:44.041Z,15.80
2023-02-04T18:24:46.829Z,11.70
2023-02-04T18:27:48.999Z,18.08
2023-02-04T18:30:54.944Z,12.20
2023-02-04T18:33:58.010Z,12.75
2023-02-04T18:40:09.247Z,8.50
2023-02-04T18:43:25.022Z,9.13
2023-02-04T18:46:32.238Z,10.30
2023-02-04T18:49:38.713Z,13.25
2023-02-04T18:52:40.875Z,9.77
2023-02-04T18:55:51.370Z,11.55
2023-02-04T18:58:53.494Z,10.55
2023-02-04T19:01:58.924Z,9.73
2023-02-04T19:05:13.048Z,16.27
2023-02-04T19:08:26.378Z,11.00
2023-02-04T19:11:47.024Z,9.82
2023-02-04T19:14:49.068Z,9.43
2023-02-04T19:17:51.517Z,13.55
2023-02-04T19:20:53.567Z,10.20
2023-02-04T19:24:15.286Z,12.07
2023-02-04T19:27:29.737Z,11.38
2023-02-04T19:30:31.862Z,13.38
2023-02-04T19:33:42.911Z,18.80
2023-02-04T19:36:47.908Z,37.33
2023-02-04T19:39:51.948Z,65.25
2023-02-04T19:45:57.443Z,67.70
2023-02-04T19:48:59.479Z,47.35
2023-02-04T19:52:02.116Z,23.65
2023-02-04T19:55:19.236Z,13.05
2023-02-04T19:58:22.460Z,9.93
2023-02-04T20:01:32.477Z,12.93
2023-02-04T20:04:47.541Z,10.55
2023-02-04T20:07:49.877Z,10.20
2023-02-04T20:10:51.873Z,17.48
2023-02-04T20:14:01.241Z,18.70
2023-02-04T20:17:23.094Z,14.23
2023-02-04T20:20:32.752Z,11.23
2023-02-04T20:23:35.531Z,10.82
2023-02-04T20:26:37.608Z,16.35
2023-02-04T20:29:39.760Z,12.10
2023-02-04T20:32:44.999Z,14.13
2023-02-04T20:35:53.511Z,11.98
2023-02-04T20:39:09.440Z,17.70
2023-02-04T20:42:26.251Z,12.32
2023-02-04T20:45:53.820Z,13.73
2023-02-04T20:48:55.885Z,13.30
2023-02-04T20:52:00.205Z,13.60
2023-02-04T20:55:02.350Z,16.50
2023-02-04T20:58:23.648Z,17.15
2023-02-04T21:01:32.423Z,16.80
2023-02-04T21:04:37.782Z,13.77
2023-02-04T21:07:44.556Z,10.57
2023-02-04T21:10:47.812Z,15.60
2023-02-04T21:13:51.433Z,12.52
2023-02-04T21:16:54.417Z,19.02
2023-02-04T21:19:56.634Z,13.35
2023-02-04T21:23:06.985Z,17.40
2023-02-04T21:26:09.844Z,12.45
2023-02-04T21:29:12.048Z,16.13
2023-02-04T21:32:14.104Z,20.42
2023-02-04T21:35:16.166Z,24.63
2023-02-04T21:38:18.104Z,25.58
2023-02-04T21:41:20.270Z,32.75
2023-02-04T21:44:22.245Z,20.20
2023-02-04T21:47:24.163Z,15.88
2023-02-04T21:50:26.324Z,15.82
2023-02-04T21:53:28.242Z,14.25
2023-02-04T21:56:30.897Z,21.30
2023-02-04T21:59:35.642Z,14.93
2023-02-04T22:02:37.720Z,16.45
2023-02-04T22:05:39.977Z,13.15
2023-02-04T22:08:41.955Z,12.20
2023-02-04T22:11:44.038Z,14.68
2023-02-04T22:14:47.447Z,12.40
2023-02-04T22:17:50.822Z,11.48
2023-02-04T22:20:52.996Z,15.35
2023-02-04T22:23:55.045Z,13.85
2023-02-04T22:26:57.421Z,12.77
2023-02-04T22:30:00.567Z,17.52
2023-02-04T22:33:02.521Z,14.30
2023-02-04T22:36:04.520Z,11.25
2023-02-04T22:39:06.637Z,18.83
2023-02-04T22:42:08.719Z,10.75
2023-02-04T22:45:11.409Z,12.48
2023-02-04T22:48:13.384Z,9.48
2023-02-04T22:51:18.325Z,11.02
2023-02-04T22:54:20.532Z,10.73
2023-02-04T22:57:22.496Z,11.32
2023-02-04T23:00:24.586Z,8.73
2023-02-04T23:03:26.790Z,9.02
2023-02-04T23:06:29.003Z,9.10
2023-02-04T23:09:34.070Z,7.10
2023-02-04T23:12:35.981Z,15.63
2023-02-04T23:15:38.282Z,12.20
2023-02-04T23:18:40.278Z,9.57
2023-02-04T23:21:42.834Z,13.40
2023-02-04T23:24:44.873Z,11.63
2023-02-04T23:27:47.337Z,12.75
2023-02-04T23:30:50.856Z,13.52
2023-02-04T23:33:52.783Z,13.57
2023-02-04T23:36:54.724Z,14.10
2023-02-04T23:39:56.600Z,12.93
2023-02-04T23:42:58.604Z,11.05
2023-02-04T23:46:00.626Z,9.38
2023-02-04T23:49:02.651Z,16.08
2023-02-04T23:52:04.738Z,14.68
2023-02-04T23:55:06.988Z,14.45
2023-02-04T23:58:09.154Z,16.40
